Temp: 8.2°C   Baro: 1006.4mb
  Wind: 0.9mph   Dir: NNW (332°)
  Rain: 0.0mm (0.0mm/hr)
  Solar: 28W/m2  Hum: 86%
 
Bath Spa Weather Station Historical Data
Daily Summary for July 12, 2019 Units:  Metric    English   Both
Daily Weekly Monthly Yearly Custom
  High: Low: Average:
Temperature: 13.9 °C 8.4 °C 11.1 °C
Dew Point: 10.3 °C 7.2 °C 8.8 °C
Humidity: 93% 72.4% 86%
Wind Speed: 10.8km/h 0km/h 3.4km/h
Wind Gust: 20.9km/h - -
Wind- - SSE
Pressure: 1013.4 hPa 1007 hPa -
Precipitation: 2.54 mm    
Historical Graphs
 
 
Tabular Data for July 12, 2019
Time Temperature Dew Point Pressure Wind Wind Speed Wind Gust Humidity Rainfall Rate (Hourly) solar
00:29 8.8 °C 7.2 °C 1013.4 hPa North 8.4 km/h 12.9 km/h 90% 0 mm 0 W/m2
00:34 8.8 °C 7.2 °C 1013.4 hPa NNE 7.7 km/h 16.1 km/h 90% 0 mm 0 W/m2
00:39 8.7 °C 7.2 °C 1013.4 hPa NE 6 km/h 12.9 km/h 90% 0 mm 0 W/m2
00:44 8.7 °C 7.2 °C 1013.4 hPa North 6.6 km/h 14.5 km/h 90% 0 mm 0 W/m2
00:49 8.7 °C 7.2 °C 1013.4 hPa NNE 8.7 km/h 14.5 km/h 90% 0 mm 0 W/m2
00:54 8.7 °C 7.2 °C 1013.1 hPa NNE 5.8 km/h 12.9 km/h 90.1% 0 mm 0 W/m2
00:59 8.7 °C 7.3 °C 1013.1 hPa NNE 5.6 km/h 12.9 km/h 90.8% 0 mm 0 W/m2
01:04 8.7 °C 7.3 °C 1013.1 hPa NNE 4.7 km/h 14.5 km/h 91% 0 mm 0 W/m2
01:09 8.7 °C 7.3 °C 1013.1 hPa North 5 km/h 14.5 km/h 91% 0 mm 0 W/m2
01:14 8.7 °C 7.2 °C 1013.1 hPa North 3.2 km/h 8 km/h 91% 0 mm 0 W/m2
01:19 8.6 °C 7.2 °C 1012.8 hPa NNE 6.3 km/h 17.7 km/h 91% 0 mm 0 W/m2
01:24 8.6 °C 7.2 °C 1012.8 hPa NNE 2.3 km/h 17.7 km/h 91% 0 mm 0 W/m2
01:29 8.6 °C 7.2 °C 1012.8 hPa NE 2.6 km/h 11.3 km/h 91% 0 mm 0 W/m2
01:34 8.6 °C 7.2 °C 1012.8 hPa NNE 3.9 km/h 11.3 km/h 91% 0 mm 0 W/m2
01:39 8.6 °C 7.2 °C 1012.8 hPa North 8.2 km/h 17.7 km/h 91% 0 mm 0 W/m2
01:44 8.6 °C 7.2 °C 1012.8 hPa North 4.7 km/h 14.5 km/h 91% 0 mm 0 W/m2
01:49 8.7 °C 7.2 °C 1012.8 hPa NNE 4 km/h 14.5 km/h 91% 0 mm 0 W/m2
01:54 8.6 °C 7.2 °C 1012.8 hPa North 5.3 km/h 12.9 km/h 91% 0 mm 0 W/m2
01:59 8.7 °C 7.2 °C 1012.8 hPa North 2.1 km/h 11.3 km/h 91% 0 mm 0 W/m2
02:04 8.7 °C 7.4 °C 1012.8 hPa NNE 5.6 km/h 12.9 km/h 91.4% 0 mm 0 W/m2
02:09 8.7 °C 7.4 °C 1012.8 hPa NNE 7.7 km/h 14.5 km/h 91.7% 0 mm 0 W/m2
02:14 8.7 °C 7.4 °C 1012.8 hPa NNE 5.6 km/h 12.9 km/h 91.8% 0 mm 0 W/m2
02:19 8.7 °C 7.4 °C 1012.4 hPa North 5.8 km/h 16.1 km/h 92% 0 mm 0 W/m2
02:24 8.6 °C 7.3 °C 1012.8 hPa NNE 6.3 km/h 16.1 km/h 91.7% 0 mm 0 W/m2
02:29 8.6 °C 7.2 °C 1012.8 hPa NNE 5.1 km/h 11.3 km/h 91.1% 0 mm 0 W/m2
02:34 8.6 °C 7.3 °C 1012.8 hPa North 1.3 km/h 6.4 km/h 91.2% 0 mm 0 W/m2
02:39 8.6 °C 7.4 °C 1012.8 hPa North 4.8 km/h 12.9 km/h 91.9% 0 mm 0 W/m2
02:44 8.6 °C 7.4 °C 1012.4 hPa NNE 6.4 km/h 16.1 km/h 92% 0 mm 0 W/m2
02:49 8.6 °C 7.3 °C 1012.4 hPa NNE 3.1 km/h 11.3 km/h 92% 0 mm 0 W/m2
02:54 8.5 °C 7.3 °C 1012.4 hPa NNE 7.1 km/h 14.5 km/h 92% 0 mm 0 W/m2
02:59 8.6 °C 7.3 °C 1012.4 hPa NNE 3.1 km/h 14.5 km/h 92% 0 mm 0 W/m2
03:04 8.6 °C 7.3 °C 1012.4 hPa North 2.4 km/h 9.7 km/h 92% 0 mm 0 W/m2
03:09 8.5 °C 7.3 °C 1012.1 hPa North 1.9 km/h 8 km/h 92% 0 mm 0 W/m2
03:14 8.6 °C 7.3 °C 1012.1 hPa NNE 6.6 km/h 11.3 km/h 92% 0 mm 0 W/m2
03:19 8.5 °C 7.3 °C 1012.1 hPa North 2.1 km/h 8 km/h 92% 0 mm 0 W/m2
03:24 8.5 °C 7.3 °C 1012.1 hPa NNW 2.4 km/h 11.3 km/h 92% 0 mm 0 W/m2
03:29 8.6 °C 7.3 °C 1012.1 hPa North 4.5 km/h 11.3 km/h 92% 0 mm 0 W/m2
03:34 8.6 °C 7.3 °C 1012.1 hPa NNE 5.5 km/h 12.9 km/h 92% 0 mm 0 W/m2
03:39 8.6 °C 7.3 °C 1012.1 hPa NNE 2.6 km/h 9.7 km/h 92% 0 mm 0 W/m2
03:44 8.6 °C 7.3 °C 1011.7 hPa NE 4.2 km/h 12.9 km/h 92% 0 mm 0 W/m2
03:49 8.5 °C 7.3 °C 1011.7 hPa NNW 2.1 km/h 8 km/h 92% 0 mm 0 W/m2
03:54 8.6 °C 7.3 °C 1011.7 hPa NNW 1.4 km/h 6.4 km/h 92% 0 mm 0 W/m2
03:59 8.6 °C 7.3 °C 1011.7 hPa North 3.9 km/h 9.7 km/h 92% 0 mm 0 W/m2
04:04 8.5 °C 7.3 °C 1011.4 hPa North 7.9 km/h 17.7 km/h 92% 0 mm 0 W/m2
04:09 8.5 °C 7.3 °C 1011.4 hPa NNE 6.4 km/h 17.7 km/h 92% 0 mm 0 W/m2
04:14 8.5 °C 7.3 °C 1011.4 hPa NNE 5.6 km/h 12.9 km/h 92% 0 mm 0 W/m2
04:19 8.5 °C 7.3 °C 1011.4 hPa NNE 5.5 km/h 14.5 km/h 92% 0 mm 0 W/m2
04:24 8.4 °C 7.3 °C 1011.4 hPa North 4.5 km/h 12.9 km/h 92% 0 mm 0 W/m2
04:29 8.5 °C 7.3 °C 1011.4 hPa NNE 9.2 km/h 16.1 km/h 92% 0 mm 0 W/m2
04:34 8.5 °C 7.3 °C 1011.4 hPa NE 1.4 km/h 12.9 km/h 92% 0 mm 0 W/m2
04:39 8.5 °C 7.3 °C 1011.4 hPa NE 1.6 km/h 6.4 km/h 92% 0 mm 0 W/m2
04:44 8.5 °C 7.3 °C 1011.4 hPa NNE 3.1 km/h 8 km/h 92% 0 mm 0 W/m2
04:49 8.5 °C 7.3 °C 1011.4 hPa NNE 4 km/h 9.7 km/h 92% 0 mm 0 W/m2
04:54 8.5 °C 7.3 °C 1011.4 hPa North 5.3 km/h 12.9 km/h 92% 0 mm 0 W/m2
04:59 8.5 °C 7.3 °C 1011.4 hPa NE 6.4 km/h 12.9 km/h 92% 0 mm 0 W/m2
05:04 8.5 °C 7.3 °C 1011.4 hPa NNE 4.5 km/h 11.3 km/h 92% 0 mm 0 W/m2
05:09 8.5 °C 7.3 °C 1011.4 hPa North 4 km/h 9.7 km/h 92% 0 mm 0 W/m2
05:14 8.5 °C 7.3 °C 1011.4 hPa North 4.3 km/h 9.7 km/h 92% 0 mm 5 W/m2
05:19 8.5 °C 7.3 °C 1011.4 hPa North 6.4 km/h 12.9 km/h 92% 0 mm 7 W/m2
05:24 8.6 °C 7.4 °C 1011.4 hPa North 4.3 km/h 14.5 km/h 92% 0 mm 7 W/m2
05:29 8.6 °C 7.3 °C 1011.4 hPa North 3.5 km/h 14.5 km/h 92% 0 mm 9 W/m2
05:34 8.6 °C 7.4 °C 1011.4 hPa North 5.3 km/h 11.3 km/h 92% 0 mm 11 W/m2
05:39 8.6 °C 7.4 °C 1011.4 hPa North 3.7 km/h 12.9 km/h 92% 0 mm 12 W/m2
05:44 8.7 °C 7.4 °C 1011.7 hPa North 2.3 km/h 8 km/h 92% 0 mm 16 W/m2
05:49 8.7 °C 7.5 °C 1011.4 hPa North 3.4 km/h 8 km/h 92% 0 mm 37 W/m2
05:54 8.7 °C 7.5 °C 1011.4 hPa ENE 2.4 km/h 12.9 km/h 92% 0 mm 46 W/m2
05:59 8.7 °C 7.5 °C 1011.4 hPa ENE 0.8 km/h 3.2 km/h 92% 0 mm 46 W/m2
06:04 8.8 °C 7.6 °C 1011.4 hPa NE 3.4 km/h 6.4 km/h 92% 0 mm 30 W/m2
06:09 8.8 °C 7.6 °C 1011.4 hPa NE 3.2 km/h 11.3 km/h 92% 0 mm 46 W/m2
06:14 8.8 °C 7.5 °C 1011.1 hPa NE 2.6 km/h 8 km/h 91.4% 0 mm 49 W/m2
06:19 8.8 °C 7.4 °C 1011.1 hPa NNE 3.2 km/h 11.3 km/h 91% 0 mm 40 W/m2
06:24 8.8 °C 7.4 °C 1011.1 hPa NNE 4.2 km/h 11.3 km/h 91% 0 mm 44 W/m2
06:29 8.9 °C 7.5 °C 1011.1 hPa NE 3.1 km/h 11.3 km/h 91% 0 mm 46 W/m2
06:34 8.9 °C 7.5 °C 1011.1 hPa NE 4.3 km/h 12.9 km/h 91% 0 mm 49 W/m2
06:39 8.9 °C 7.5 °C 1011.1 hPa NNE 6 km/h 14.5 km/h 91% 0 mm 74 W/m2
06:44 8.9 °C 7.5 °C 1011.1 hPa NNE 3.2 km/h 14.5 km/h 91% 0 mm 83 W/m2
06:49 9 °C 7.6 °C 1010.7 hPa NNE 3.2 km/h 11.3 km/h 91% 0 mm 109 W/m2
06:54 9.1 °C 7.7 °C 1010.7 hPa NNE 5.3 km/h 12.9 km/h 91% 0 mm 118 W/m2
06:59 9.2 °C 7.8 °C 1010.7 hPa NE 5.8 km/h 12.9 km/h 91% 0 mm 125 W/m2
07:04 9.2 °C 7.8 °C 1010.7 hPa NNE 2.3 km/h 12.9 km/h 91% 0 mm 125 W/m2
07:09 9.3 °C 7.9 °C 1010.7 hPa NNE 3.4 km/h 6.4 km/h 91% 0 mm 120 W/m2
07:14 9.4 °C 8 °C 1010.7 hPa NE 2.4 km/h 9.7 km/h 90.9% 0 mm 105 W/m2
07:19 9.4 °C 7.8 °C 1010.7 hPa NE 1 km/h 9.7 km/h 90% 0 mm 97 W/m2
07:24 9.5 °C 7.9 °C 1010.7 hPa ENE 5.8 km/h 14.5 km/h 90% 0 mm 105 W/m2
07:29 9.5 °C 7.9 °C 1011.1 hPa NE 2.7 km/h 14.5 km/h 90% 0 mm 83 W/m2
07:34 9.5 °C 7.9 °C 1010.7 hPa NE 1.3 km/h 4.8 km/h 90% 0 mm 77 W/m2
07:39 9.5 °C 7.9 °C 1010.7 hPa NNE 6.4 km/h 17.7 km/h 90% 0 mm 72 W/m2
07:44 9.5 °C 7.9 °C 1010.7 hPa NNE 4.7 km/h 14.5 km/h 90% 0 mm 91 W/m2
07:49 9.5 °C 7.9 °C 1010.7 hPa NNE 5.8 km/h 11.3 km/h 90% 0 mm 113 W/m2
07:54 9.5 °C 7.9 °C 1010.7 hPa NNE 5.6 km/h 14.5 km/h 89.8% 0 mm 116 W/m2
07:59 9.5 °C 7.8 °C 1010.7 hPa NNE 7.4 km/h 17.7 km/h 89.7% 0 mm 160 W/m2
08:04 9.5 °C 7.8 °C 1010.7 hPa NNE 9.5 km/h 19.3 km/h 89.5% 0 mm 171 W/m2
08:09 9.5 °C 7.9 °C 1010.7 hPa NE 5.3 km/h 16.1 km/h 90% 0 mm 137 W/m2
08:14 9.6 °C 8 °C 1010.7 hPa NE 8.2 km/h 17.7 km/h 90% 0 mm 98 W/m2
08:19 9.5 °C 7.9 °C 1011.1 hPa North 4.5 km/h 12.9 km/h 90% 0 mm 100 W/m2
08:24 9.5 °C 7.9 °C 1011.1 hPa NNE 2.7 km/h 9.7 km/h 90% 0 mm 91 W/m2
08:29 9.5 °C 7.9 °C 1011.1 hPa NNE 0.5 km/h 6.4 km/h 90% 0 mm 77 W/m2
08:34 9.6 °C 8 °C 1011.1 hPa NNE 1.9 km/h 8 km/h 90% 0 mm 63 W/m2
08:39 9.7 °C 8.1 °C 1011.1 hPa NE 4.2 km/h 14.5 km/h 90% 0 mm 69 W/m2
08:44 9.7 °C 8.1 °C 1011.1 hPa ENE 3.1 km/h 11.3 km/h 90% 0 mm 90 W/m2
08:49 9.8 °C 8.2 °C 1010.7 hPa ENE 0.8 km/h 4.8 km/h 90% 0 mm 113 W/m2
08:54 9.8 °C 8.2 °C 1010.7 hPa ENE 2.1 km/h 6.4 km/h 90% 0 mm 139 W/m2
08:59 9.8 °C 8.1 °C 1010.7 hPa ENE 1.6 km/h 6.4 km/h 89.1% 0 mm 162 W/m2
09:04 9.8 °C 8.2 °C 1010.7 hPa ENE 1 km/h 4.8 km/h 89.2% 0 mm 239 W/m2
09:09 9.9 °C 8.3 °C 1010.4 hPa NE 3.5 km/h 9.7 km/h 90% 0 mm 285 W/m2
09:14 10.1 °C 8.4 °C 1010.4 hPa NNE 0.8 km/h 6.4 km/h 89.5% 0 mm 283 W/m2
09:19 10.2 °C 8.6 °C 1010.4 hPa NE 2.9 km/h 12.9 km/h 89% 0 mm 285 W/m2
09:24 10.3 °C 8.7 °C 1010.4 hPa ENE 4.7 km/h 12.9 km/h 89% 0 mm 281 W/m2
09:29 10.4 °C 8.8 °C 1010.4 hPa NE 0.6 km/h 6.4 km/h 89% 0 mm 304 W/m2
09:34 10.7 °C 8.9 °C 1010.4 hPa NE 4.2 km/h 11.3 km/h 89% 0 mm 285 W/m2
09:39 10.7 °C 8.8 °C 1010 hPa North 1.8 km/h 9.7 km/h 88.3% 0 mm 322 W/m2
09:44 10.7 °C 8.8 °C 1010.4 hPa ENE 4.7 km/h 9.7 km/h 88% 0 mm 292 W/m2
09:49 10.8 °C 8.9 °C 1010.4 hPa NNE 4.8 km/h 14.5 km/h 88% 0 mm 192 W/m2
09:54 10.8 °C 8.8 °C 1010.7 hPa ENE 8.5 km/h 16.1 km/h 87.5% 0 mm 174 W/m2
09:59 10.7 °C 8.7 °C 1010.7 hPa NNE 4 km/h 12.9 km/h 87% 0 mm 193 W/m2
10:04 10.7 °C 8.6 °C 1010.4 hPa NNE 3.5 km/h 8 km/h 87% 0 mm 283 W/m2
10:09 10.8 °C 8.7 °C 1010.4 hPa NNW 1.9 km/h 11.3 km/h 87% 0 mm 169 W/m2
10:14 10.8 °C 8.7 °C 1010.4 hPa NNE 3.7 km/h 14.5 km/h 87% 0 mm 165 W/m2
10:19 10.9 °C 8.8 °C 1010.4 hPa NE 2.9 km/h 9.7 km/h 87% 0 mm 253 W/m2
10:24 10.9 °C 8.8 °C 1010.4 hPa NNE 5.1 km/h 12.9 km/h 87% 0 mm 309 W/m2
10:29 11 °C 8.9 °C 1010.4 hPa NNE 3.2 km/h 6.4 km/h 87% 0 mm 334 W/m2
10:34 11.1 °C 8.9 °C 1010.7 hPa NNE 5.3 km/h 9.7 km/h 86.7% 0 mm 308 W/m2
10:39 11.1 °C 8.8 °C 1010.7 hPa NNE 7.2 km/h 12.9 km/h 86% 0 mm 165 W/m2
10:44 10.9 °C 8.7 °C 1010.7 hPa North 8.2 km/h 14.5 km/h 86% 0 mm 246 W/m2
10:49 10.9 °C 8.6 °C 1010.7 hPa NNE 7.1 km/h 16.1 km/h 86% 0 mm 302 W/m2
10:54 10.9 °C 8.7 °C 1010.4 hPa NNE 6.8 km/h 14.5 km/h 86% 0 mm 302 W/m2
10:59 11.1 °C 8.8 °C 1010.4 hPa NE 4.2 km/h 14.5 km/h 86.2% 0 mm 369 W/m2
11:04 11.3 °C 8.9 °C 1010.4 hPa NE 3.5 km/h 12.9 km/h 86% 0 mm 380 W/m2
11:09 11.3 °C 9.1 °C 1010.4 hPa NNE 6.6 km/h 12.9 km/h 86% 0 mm 480 W/m2
11:14 11.7 °C 9.3 °C 1010.4 hPa NNE 6 km/h 14.5 km/h 85.8% 0 mm 504 W/m2
11:19 11.8 °C 9.3 °C 1010.4 hPa NNE 5.1 km/h 16.1 km/h 85% 0 mm 353 W/m2
11:24 11.8 °C 9.4 °C 1010.7 hPa ENE 5.5 km/h 16.1 km/h 85% 0 mm 503 W/m2
11:29 12.1 °C 9.6 °C 1010.4 hPa North 7.6 km/h 16.1 km/h 84.3% 0 mm 503 W/m2
11:34 11.7 °C 9 °C 1010.4 hPa NNW 9.3 km/h 17.7 km/h 83.5% 0 mm 522 W/m2
11:39 11.6 °C 9 °C 1010.4 hPa North 8.5 km/h 16.1 km/h 84% 0 mm 895 W/m2
11:44 12.2 °C 9.7 °C 1010 hPa North 1.6 km/h 11.3 km/h 84.5% 0 mm 768 W/m2
11:49 12.5 °C 9.6 °C 1010 hPa NNW 6.6 km/h 16.1 km/h 82.6% 0 mm 666 W/m2
11:54 12.4 °C 9.3 °C 1010 hPa North 7.1 km/h 14.5 km/h 81% 0 mm 666 W/m2
11:59 12.3 °C 9.1 °C 1010 hPa North 7.4 km/h 14.5 km/h 81% 0 mm 436 W/m2
12:04 12.2 °C 8.9 °C 1010 hPa NW 4.5 km/h 11.3 km/h 80.8% 0 mm 454 W/m2
12:09 12.3 °C 9.1 °C 1010 hPa NNW 4.3 km/h 11.3 km/h 81% 0 mm 360 W/m2
12:14 12.4 °C 9.2 °C 1010 hPa NNW 7.4 km/h 14.5 km/h 80.7% 0 mm 366 W/m2
12:19 12.3 °C 8.9 °C 1010 hPa North 6.3 km/h 14.5 km/h 80% 0 mm 424 W/m2
12:24 12.4 °C 9.1 °C 1010 hPa NNW 6.3 km/h 12.9 km/h 80.4% 0 mm 468 W/m2
12:29 12.4 °C 9.2 °C 1010 hPa NNW 7.2 km/h 14.5 km/h 81% 0 mm 445 W/m2
12:34 12.4 °C 9.2 °C 1010.4 hPa NW 5.1 km/h 11.3 km/h 81% 0 mm 346 W/m2
12:39 12.6 °C 9.4 °C 1010.4 hPa NNW 3.1 km/h 9.7 km/h 81.1% 0 mm 438 W/m2
12:44 12.9 °C 9.7 °C 1010 hPa NW 2.6 km/h 9.7 km/h 80.9% 0 mm 417 W/m2
12:49 12.9 °C 9.6 °C 1010 hPa NW 4.3 km/h 9.7 km/h 80% 0 mm 436 W/m2
12:54 12.9 °C 9.5 °C 1010 hPa North 10.8 km/h 19.3 km/h 80% 0 mm 427 W/m2
12:59 12.8 °C 9.4 °C 1010 hPa North 6.4 km/h 16.1 km/h 80.3% 0 mm 427 W/m2
13:04 12.7 °C 9.3 °C 1010 hPa North 9.2 km/h 16.1 km/h 80% 0 mm 408 W/m2
13:09 12.6 °C 9.2 °C 1010 hPa North 6.4 km/h 16.1 km/h 80% 0 mm 378 W/m2
13:14 12.7 °C 9.3 °C 1010 hPa NNE 9.3 km/h 20.9 km/h 80% 0 mm 385 W/m2
13:19 12.7 °C 9.3 °C 1010 hPa North 6.9 km/h 20.9 km/h 80% 0 mm 403 W/m2
13:24 12.7 °C 9.3 °C 1010 hPa NNW 8.2 km/h 16.1 km/h 80% 0 mm 462 W/m2
13:29 12.9 °C 9.6 °C 1010 hPa North 6.3 km/h 12.9 km/h 80.3% 0 mm 638 W/m2
13:34 13.1 °C 9.6 °C 1010 hPa NNW 4.5 km/h 12.9 km/h 79.5% 0 mm 504 W/m2
13:39 13.2 °C 9.7 °C 1010 hPa NNW 7.7 km/h 19.3 km/h 79.1% 0 mm 578 W/m2
13:44 13.2 °C 9.6 °C 1010 hPa North 8.2 km/h 19.3 km/h 78.9% 0 mm 578 W/m2
13:49 13.2 °C 9.4 °C 1009.7 hPa NNW 7.6 km/h 16.1 km/h 78.1% 0 mm 708 W/m2
13:54 13.4 °C 9.7 °C 1009.7 hPa NNW 7.2 km/h 12.9 km/h 78% 0 mm 649 W/m2
13:59 13.6 °C 9.6 °C 1009.7 hPa NNW 4 km/h 11.3 km/h 77% 0 mm 446 W/m2
14:04 13.7 °C 9.7 °C 1009.7 hPa NNE 4.8 km/h 11.3 km/h 77% 0 mm 396 W/m2
14:09 13.8 °C 9.7 °C 1009.7 hPa NNE 3.2 km/h 8 km/h 76.6% 0 mm 327 W/m2
14:14 13.9 °C 9.6 °C 1009.7 hPa NE 3.5 km/h 9.7 km/h 75.6% 0 mm 294 W/m2
14:19 13.9 °C 9.5 °C 1009.4 hPa NNW 3.7 km/h 8 km/h 75% 0 mm 278 W/m2
14:24 13.8 °C 9.1 °C 1009.4 hPa North 6 km/h 11.3 km/h 73.7% 0 mm 271 W/m2
14:29 13.7 °C 9 °C 1009.4 hPa NNE 6 km/h 12.9 km/h 73.5% 0 mm 290 W/m2
14:34 13.7 °C 9.2 °C 1009.4 hPa North 3.1 km/h 8 km/h 74% 0 mm 297 W/m2
14:39 13.8 °C 9.1 °C 1009.4 hPa NNE 4.2 km/h 8 km/h 73.2% 0 mm 246 W/m2
14:44 13.9 °C 9.2 °C 1009.4 hPa NNW 4.7 km/h 9.7 km/h 73.9% 0 mm 192 W/m2
14:49 13.6 °C 9.1 °C 1009.4 hPa NW 4.7 km/h 9.7 km/h 74% 0 mm 183 W/m2
14:54 13.7 °C 9.2 °C 1009.4 hPa NW 4.5 km/h 9.7 km/h 74.8% 0 mm 197 W/m2
14:59 13.6 °C 9.1 °C 1009.4 hPa North 5.8 km/h 11.3 km/h 74.4% 0 mm 197 W/m2
15:04 13.5 °C 9 °C 1009.4 hPa North 4.8 km/h 11.3 km/h 74% 0 mm 202 W/m2
15:09 13.5 °C 9 °C 1009.4 hPa NNE 4.7 km/h 11.3 km/h 74% 0 mm 199 W/m2
15:14 13.7 °C 9.1 °C 1009.4 hPa NE 2.7 km/h 6.4 km/h 74% 0 mm 185 W/m2
15:19 13.8 °C 9.2 °C 1009.4 hPa ENE 1.4 km/h 8 km/h 74% 0 mm 185 W/m2
15:24 13.8 °C 9.1 °C 1009.4 hPa North 3.9 km/h 9.7 km/h 73.1% 0 mm 206 W/m2
15:29 13.8 °C 9.1 °C 1009.4 hPa North 4 km/h 8 km/h 73.3% 0 mm 229 W/m2
15:34 13.8 °C 9.1 °C 1009.4 hPa North 3.2 km/h 6.4 km/h 73.8% 0 mm 227 W/m2
15:39 13.7 °C 8.8 °C 1009.4 hPa NNW 2.4 km/h 8 km/h 72.5% 0 mm 199 W/m2
15:44 13.8 °C 8.9 °C 1009.4 hPa NW 1.8 km/h 6.4 km/h 72.4% 0 mm 151 W/m2
15:49 13.8 °C 9 °C 1009.4 hPa NNW 4.7 km/h 9.7 km/h 72.7% 0 mm 137 W/m2
15:54 13.7 °C 8.9 °C 1009.4 hPa NNW 3.5 km/h 9.7 km/h 73% 0 mm 128 W/m2
15:59 13.7 °C 9 °C 1009.4 hPa NNW 1 km/h 6.4 km/h 73.5% 0 mm 116 W/m2
16:04 13.7 °C 9.1 °C 1009.4 hPa NNW 1.3 km/h 4.8 km/h 74% 0 mm 102 W/m2
16:09 13.8 °C 9.2 °C 1009.4 hPa NNW 0.6 km/h 4.8 km/h 74% 0 mm 97 W/m2
16:14 13.8 °C 9.1 °C 1009.4 hPa NNW 2.1 km/h 6.4 km/h 73.2% 0 mm 95 W/m2
16:19 13.8 °C 8.9 °C 1009.4 hPa NNW 2.1 km/h 6.4 km/h 72.6% 0 mm 100 W/m2
16:24 13.8 °C 8.9 °C 1009 hPa North 4.3 km/h 8 km/h 72.6% 0 mm 102 W/m2
16:29 13.8 °C 9.1 °C 1009 hPa North 2.7 km/h 8 km/h 73.5% 0 mm 104 W/m2
16:34 13.7 °C 9.2 °C 1009 hPa NNW 4.2 km/h 9.7 km/h 74% 0 mm 105 W/m2
16:39 13.6 °C 9.1 °C 1009 hPa NNW 3.2 km/h 9.7 km/h 74.2% 0 mm 105 W/m2
16:44 13.5 °C 9.2 °C 1009 hPa NNW 2.7 km/h 8 km/h 75% 0 mm 107 W/m2
16:49 13.5 °C 9.3 °C 1009 hPa NW 2.7 km/h 8 km/h 75.4% 0 mm 107 W/m2
16:54 13.5 °C 9.4 °C 1009 hPa NW 1.9 km/h 6.4 km/h 76% 0 mm 107 W/m2
16:59 13.4 °C 9.3 °C 1009 hPa NW 5.1 km/h 8 km/h 76% 0 mm 107 W/m2
17:04 13.4 °C 9.3 °C 1009 hPa NW 2.3 km/h 6.4 km/h 76% 0 mm 109 W/m2
17:09 13.4 °C 9.3 °C 1009 hPa NW 2.4 km/h 6.4 km/h 76.2% 0 mm 111 W/m2
17:14 13.4 °C 9.4 °C 1008.7 hPa NW 3.7 km/h 6.4 km/h 77% 0 mm 121 W/m2
17:19 13.4 °C 9.6 °C 1008.7 hPa NW 1 km/h 4.8 km/h 77.8% 0 mm 125 W/m2
17:24 13.4 °C 9.8 °C 1008.7 hPa NW 1.8 km/h 6.4 km/h 78.8% 0 mm 123 W/m2
17:29 13.4 °C 9.8 °C 1008.7 hPa NNW 3.1 km/h 8 km/h 79% 0 mm 120 W/m2
17:34 13.3 °C 9.7 °C 1008.7 hPa NNW 1.6 km/h 8 km/h 79% 0 mm 111 W/m2
17:39 13.2 °C 9.6 °C 1008.4 hPa NNW 1.4 km/h 6.4 km/h 79% 0 mm 105 W/m2
17:44 13.2 °C 9.7 °C 1008.4 hPa NNW 0.8 km/h 6.4 km/h 79.9% 0 mm 98 W/m2
17:49 13 °C 9.6 °C 1008.4 hPa NNW 1.1 km/h 4.8 km/h 80% 0 mm 100 W/m2
17:54 13 °C 9.6 °C 1008.4 hPa NNW 2.3 km/h 4.8 km/h 80% 0 mm 104 W/m2
17:59 13 °C 9.7 °C 1008.4 hPa NNW 2.3 km/h 6.4 km/h 80.8% 0 mm 107 W/m2
18:04 12.9 °C 9.7 °C 1008.4 hPa NNW 2.1 km/h 6.4 km/h 81% 0 mm 109 W/m2
18:09 12.9 °C 9.7 °C 1008.4 hPa NNW 0.8 km/h 4.8 km/h 81% 0 mm 109 W/m2
18:14 12.9 °C 9.8 °C 1008.4 hPa NNW 1.4 km/h 4.8 km/h 81.3% 0 mm 107 W/m2
18:19 12.9 °C 9.9 °C 1008.4 hPa NNW 1.8 km/h 4.8 km/h 82% 0 mm 102 W/m2
18:24 12.9 °C 9.9 °C 1008.4 hPa NNW 1.4 km/h 6.4 km/h 82% 0 mm 91 W/m2
18:29 12.9 °C 10.1 °C 1008.4 hPa NNW 0.6 km/h 4.8 km/h 82.8% 0 mm 81 W/m2
18:34 12.9 °C 10.1 °C 1008.4 hPa NNW 0.6 km/h 3.2 km/h 83% 0 mm 76 W/m2
18:39 12.8 °C 10.1 °C 1008 hPa NNW 0.6 km/h 3.2 km/h 83.6% 0 mm 69 W/m2
18:44 12.7 °C 10.1 °C 1008 hPa Calm   1.6 km/h 84% 0 mm 60 W/m2
18:49 12.6 °C 10 °C 1008 hPa Calm     84% 0 mm 56 W/m2
18:54 12.7 °C 10.1 °C 1008 hPa NNW 0.2 km/h 1.6 km/h 84.7% 0 mm 54 W/m2
18:59 12.7 °C 10.2 °C 1008 hPa Calm     85% 0 mm 53 W/m2
19:04 12.6 °C 10.1 °C 1008 hPa NNW 0.8 km/h 4.8 km/h 85% 0 mm 53 W/m2
19:09 12.5 °C 10 °C 1008 hPa NNW 0.5 km/h 4.8 km/h 85% 0 mm 51 W/m2
19:14 12.5 °C 10.1 °C 1008 hPa NNW 0.2 km/h 3.2 km/h 85.5% 0 mm 51 W/m2
19:19 12.5 °C 10.2 °C 1008 hPa Calm   1.6 km/h 86% 0 mm 51 W/m2
19:24 12.5 °C 10.2 °C 1008 hPa NNW 0.3 km/h 3.2 km/h 86% 0.25 mm 49 W/m2
19:29 12.5 °C 10.2 °C 1008 hPa NNW 0.2 km/h 3.2 km/h 86% 0.25 mm 46 W/m2
19:34 12.4 °C 10.2 °C 1008 hPa NNW 0.2 km/h 1.6 km/h 86% 0.25 mm 42 W/m2
19:39 12.3 °C 10.1 °C 1008 hPa NNW 0.2 km/h 1.6 km/h 86.2% 0.25 mm 33 W/m2
19:44 12.3 °C 9.9 °C 1008 hPa Calm     86.1% 0.25 mm 28 W/m2
19:49 12.3 °C 10.1 °C 1008 hPa NNW 0.3 km/h 1.6 km/h 86.7% 0.25 mm 25 W/m2
19:54 12.3 °C 10.2 °C 1008 hPa Calm     87% 0.25 mm 21 W/m2
19:59 12.4 °C 10.3 °C 1008 hPa Calm     87% 0.25 mm 19 W/m2
20:04 12.4 °C 10.3 °C 1008 hPa Calm     87% 0.25 mm 19 W/m2
20:09 12.3 °C 10.3 °C 1008 hPa Calm   1.6 km/h 87% 0.25 mm 18 W/m2
20:14 12.2 °C 10.1 °C 1008 hPa Calm   1.6 km/h 87% 0.25 mm 18 W/m2
20:19 12.1 °C 9.9 °C 1008 hPa Calm     87% 0.25 mm 18 W/m2
20:24 12 °C 10 °C 1007.7 hPa Calm     87.7% 0 mm 16 W/m2
20:29 11.9 °C 9.8 °C 1007.7 hPa Calm     87% 0 mm 14 W/m2
20:34 11.9 °C 9.8 °C 1007.7 hPa Calm     87% 0 mm 12 W/m2
20:39 11.9 °C 10.1 °C 1007.7 hPa Calm     88% 0 mm 12 W/m2
20:44 11.9 °C 10.1 °C 1007.7 hPa Calm     88% 0.25 mm 11 W/m2
20:49 11.9 °C 10.1 °C 1008 hPa Calm     88% 0.25 mm 7 W/m2
20:54 11.9 °C 10 °C 1008 hPa Calm     88% 0.25 mm 5 W/m2
20:59 11.9 °C 10 °C 1008 hPa Calm     88% 0.25 mm 5 W/m2
21:04 11.8 °C 9.9 °C 1007.7 hPa Calm     88.3% 0.25 mm 0 W/m2
21:09 11.8 °C 9.9 °C 1007.7 hPa Calm     88.5% 0.25 mm 0 W/m2
21:14 11.8 °C 10 °C 1008 hPa Calm     89% 0.25 mm 0 W/m2
21:19 11.8 °C 10.1 °C 1008 hPa Calm   1.6 km/h 89% 0.25 mm 0 W/m2
21:24 11.8 °C 10 °C 1008 hPa Calm   1.6 km/h 89% 0.25 mm 0 W/m2
21:29 11.8 °C 10 °C 1008 hPa Calm     89% 0.25 mm 0 W/m2
21:34 11.8 °C 10 °C 1008 hPa Calm     89% 0.25 mm 0 W/m2
21:39 11.8 °C 10.2 °C 1008 hPa Calm     90% 0.25 mm 0 W/m2
21:44 11.7 °C 10.1 °C 1007.7 hPa Calm     90% 0.25 mm 0 W/m2
21:49 11.6 °C 9.9 °C 1008 hPa NNW 0.8 km/h 3.2 km/h 90% 0 mm 0 W/m2
21:54 11.5 °C 9.9 °C 1008 hPa Calm   3.2 km/h 90% 0 mm 0 W/m2
21:59 11.5 °C 9.9 °C 1008 hPa Calm   1.6 km/h 90.1% 0.25 mm 0 W/m2
22:04 11.4 °C 10.1 °C 1008 hPa Calm   1.6 km/h 90.8% 0.25 mm 0 W/m2
22:09 11.4 °C 10.1 °C 1008 hPa Calm     91% 0.25 mm 0 W/m2
22:14 11.4 °C 10.1 °C 1007.7 hPa NNW 0.2 km/h 1.6 km/h 91% 0.25 mm 0 W/m2
22:19 11.4 °C 10.1 °C 1007.7 hPa Calm   1.6 km/h 91% 0.25 mm 0 W/m2
22:24 11.4 °C 10 °C 1007.7 hPa Calm   1.6 km/h 91% 0.25 mm 0 W/m2
22:29 11.4 °C 10 °C 1007.7 hPa NNW 0.5 km/h 3.2 km/h 91% 0.51 mm 0 W/m2
22:34 11.3 °C 9.9 °C 1007.7 hPa NNW 1 km/h 3.2 km/h 91% 0.51 mm 0 W/m2
22:39 11.3 °C 9.8 °C 1007.7 hPa NNW 0.5 km/h 3.2 km/h 91% 0.51 mm 0 W/m2
22:44 11.2 °C 9.9 °C 1007.7 hPa NNW 1.1 km/h 4.8 km/h 91.9% 1.02 mm 0 W/m2
22:49 11.2 °C 9.9 °C 1007.7 hPa NNW 1.3 km/h 4.8 km/h 92% 1.02 mm 0 W/m2
22:54 11.1 °C 9.8 °C 1007.3 hPa NNW 0.3 km/h 4.8 km/h 92% 1.02 mm 0 W/m2
22:59 11.1 °C 9.8 °C 1007.7 hPa NNW 0.8 km/h 3.2 km/h 92% 1.02 mm 0 W/m2
23:04 11 °C 9.8 °C 1007.3 hPa NNW 1 km/h 4.8 km/h 92% 1.02 mm 0 W/m2
23:09 11 °C 9.8 °C 1007.3 hPa NNW 1.3 km/h 4.8 km/h 92% 1.02 mm 0 W/m2
23:14 11 °C 9.8 °C 1007.3 hPa NNW 0.6 km/h 4.8 km/h 92% 1.02 mm 0 W/m2
23:19 10.9 °C 9.7 °C 1007.3 hPa NW 2.6 km/h 6.4 km/h 92% 1.02 mm 0 W/m2
23:24 10.9 °C 9.7 °C 1007.3 hPa NW 1 km/h 6.4 km/h 92% 1.02 mm 0 W/m2
23:29 10.9 °C 9.7 °C 1007.3 hPa NW 0.8 km/h 4.8 km/h 92.4% 1.02 mm 0 W/m2
23:34 10.8 °C 9.7 °C 1007 hPa NW 1.1 km/h 4.8 km/h 92.8% 1.02 mm 0 W/m2
23:39 10.8 °C 9.7 °C 1007 hPa NW 1 km/h 6.4 km/h 92.4% 1.02 mm 0 W/m2
23:44 10.8 °C 9.6 °C 1007 hPa NW 2.3 km/h 6.4 km/h 92.2% 1.02 mm 0 W/m2
23:49 10.8 °C 9.7 °C 1007 hPa NW 0.2 km/h 3.2 km/h 93% 0.76 mm 0 W/m2
23:54 10.8 °C 9.7 °C 1007 hPa NW 1.8 km/h 6.4 km/h 93% 1.02 mm 0 W/m2
23:59 10.7 °C 9.6 °C 1007 hPa NW 1.8 km/h 6.4 km/h 93% 1.02 mm 0 W/m2
Bath Spa Weather
Compliments of Weather Underground - 2 mb